createdAt,value
2018-09-11T00:01:04.913Z,18.41
2018-09-11T00:03:38.789Z,18.39
2018-09-11T00:06:12.096Z,18.40
2018-09-11T00:08:45.434Z,18.41
2018-09-11T00:11:18.766Z,18.42
2018-09-11T00:13:52.161Z,18.41
2018-09-11T00:16:26.547Z,18.42
2018-09-11T00:18:59.879Z,18.42
2018-09-11T00:21:33.353Z,18.42
2018-09-11T00:24:06.670Z,18.43
2018-09-11T00:26:40.435Z,18.43
2018-09-11T00:29:13.734Z,18.40
2018-09-11T00:31:48.124Z,18.38
2018-09-11T00:34:21.425Z,18.37
2018-09-11T00:36:54.705Z,18.39
2018-09-11T00:39:28.274Z,18.37
2018-09-11T00:42:01.573Z,18.38
2018-09-11T00:44:34.918Z,18.38
2018-09-11T00:47:08.765Z,18.38
2018-09-11T00:49:42.065Z,18.37
2018-09-11T00:52:15.333Z,18.38
2018-09-11T00:54:49.727Z,18.37
2018-09-11T00:57:23.015Z,18.35
2018-09-11T00:59:56.353Z,18.36
2018-09-11T01:02:30.061Z,18.39
2018-09-11T01:05:03.377Z,18.39
2018-09-11T01:07:36.663Z,18.39
2018-09-11T01:10:10.756Z,18.38
2018-09-11T01:12:44.052Z,18.39
2018-09-11T01:15:17.735Z,18.38
2018-09-11T01:17:51.286Z,18.38
2018-09-11T01:20:24.706Z,18.38
2018-09-11T01:22:57.997Z,18.39
2018-09-11T01:25:31.581Z,18.41
2018-09-11T01:28:04.870Z,18.40
2018-09-11T01:30:38.185Z,18.39
2018-09-11T01:33:12.226Z,18.37
2018-09-11T01:35:45.537Z,18.33
2018-09-11T01:38:18.861Z,18.33
2018-09-11T01:40:52.174Z,18.36
2018-09-11T01:43:26.474Z,18.39
2018-09-11T01:45:59.800Z,18.44
2018-09-11T01:48:33.081Z,18.46
2018-09-11T01:51:06.476Z,18.49
2018-09-11T01:53:39.800Z,18.53
2018-09-11T01:56:13.110Z,18.56
2018-09-11T01:58:46.409Z,18.58
2018-09-11T02:01:20.159Z,18.63
2018-09-11T02:03:53.446Z,18.64
2018-09-11T02:06:26.766Z,18.65
2018-09-11T02:09:00.073Z,18.66
2018-09-11T02:11:33.393Z,18.66
2018-09-11T02:14:06.705Z,18.67
2018-09-11T02:16:40.041Z,18.67
2018-09-11T02:19:13.322Z,18.69
2018-09-11T02:21:46.661Z,18.70
2018-09-11T02:24:20.793Z,18.69
2018-09-11T02:26:54.099Z,18.71
2018-09-11T02:29:27.389Z,18.71
2018-09-11T02:32:00.738Z,18.70
2018-09-11T02:34:34.034Z,18.71
2018-09-11T02:37:08.031Z,18.72
2018-09-11T02:39:42.234Z,18.70
2018-09-11T02:42:15.549Z,18.70
2018-09-11T02:44:48.929Z,18.73
2018-09-11T02:47:22.885Z,18.73
2018-09-11T02:49:56.194Z,18.72
2018-09-11T02:52:29.505Z,18.73
2018-09-11T02:55:02.791Z,18.71
2018-09-11T02:57:37.069Z,18.69
2018-09-11T03:00:10.363Z,18.70
2018-09-11T03:02:43.675Z,18.70
2018-09-11T03:05:16.973Z,18.70
2018-09-11T03:07:50.278Z,18.71
2018-09-11T03:10:23.648Z,18.74
2018-09-11T03:12:57.614Z,18.78
2018-09-11T03:15:31.070Z,18.70
2018-09-11T03:18:04.410Z,18.70
2018-09-11T03:20:37.996Z,18.76
2018-09-11T03:23:11.350Z,18.74
2018-09-11T03:25:44.678Z,18.77
2018-09-11T03:28:17.997Z,18.79
2018-09-11T03:30:51.453Z,18.81
2018-09-11T03:33:24.785Z,18.78
2018-09-11T03:35:59.132Z,18.82
2018-09-11T03:38:32.488Z,18.86
2018-09-11T03:41:06.510Z,18.85
2018-09-11T03:43:39.854Z,18.88
2018-09-11T03:46:14.241Z,18.86
2018-09-11T03:48:47.545Z,18.84
2018-09-11T03:51:22.245Z,18.79
2018-09-11T03:53:55.560Z,18.83
2018-09-11T03:56:28.885Z,18.86
2018-09-11T03:59:02.188Z,18.86
2018-09-11T04:01:35.531Z,18.86
2018-09-11T04:04:08.911Z,18.87
2018-09-11T04:06:42.249Z,18.86
2018-09-11T04:09:15.566Z,18.83
2018-09-11T04:11:48.889Z,18.89
2018-09-11T04:14:22.192Z,18.77
2018-09-11T04:16:55.737Z,18.78
2018-09-11T04:19:29.017Z,18.77
2018-09-11T04:22:02.333Z,18.79
2018-09-11T04:24:35.785Z,18.80
2018-09-11T04:27:09.139Z,18.79
2018-09-11T04:29:42.424Z,18.74
2018-09-11T04:32:15.736Z,18.70
2018-09-11T04:34:49.010Z,18.70
2018-09-11T04:37:29.094Z,18.71
2018-09-11T04:40:02.476Z,18.70
2018-09-11T04:42:35.806Z,18.64
2018-09-11T04:45:09.145Z,18.62
2018-09-11T04:47:42.450Z,18.59
2018-09-11T04:50:15.753Z,18.57
2018-09-11T04:52:49.085Z,18.62
2018-09-11T04:55:22.484Z,18.63
2018-09-11T04:57:55.793Z,18.64
2018-09-11T05:00:29.081Z,18.63
2018-09-11T05:03:03.363Z,18.59
2018-09-11T05:05:36.933Z,18.62
2018-09-11T05:08:10.267Z,18.62
2018-09-11T05:10:43.581Z,18.61
2018-09-11T05:13:16.926Z,18.64
2018-09-11T05:15:50.577Z,18.64
2018-09-11T05:18:23.943Z,18.67
2018-09-11T05:20:58.216Z,18.64
2018-09-11T05:23:31.534Z,18.67
2018-09-11T05:26:04.860Z,18.68
2018-09-11T05:28:38.481Z,18.67
2018-09-11T05:31:11.820Z,18.72
2018-09-11T05:33:45.161Z,18.77
2018-09-11T05:36:19.004Z,18.77
2018-09-11T05:38:52.330Z,18.75
2018-09-11T05:41:25.642Z,18.77
2018-09-11T05:43:58.968Z,18.76
2018-09-11T05:46:32.299Z,18.68
2018-09-11T05:49:05.985Z,18.78
2018-09-11T05:51:45.940Z,18.80
2018-09-11T05:54:19.355Z,18.87
2018-09-11T05:56:52.673Z,18.95
2018-09-11T05:59:26.655Z,19.02
2018-09-11T06:01:59.970Z,19.12
2018-09-11T06:04:33.316Z,19.21
2018-09-11T06:07:06.637Z,19.30
2018-09-11T06:09:40.341Z,19.30
2018-09-11T06:12:13.644Z,19.20
2018-09-11T06:14:46.977Z,19.29
2018-09-11T06:17:20.314Z,19.37
2018-09-11T06:19:53.690Z,19.42
2018-09-11T06:22:27.032Z,19.40
2018-09-11T06:25:00.339Z,19.41
2018-09-11T06:27:33.631Z,19.48
2018-09-11T06:30:07.289Z,19.47
2018-09-11T06:32:40.589Z,19.57
2018-09-11T06:35:13.929Z,19.58
2018-09-11T06:37:47.234Z,19.50
2018-09-11T06:40:20.937Z,19.61
2018-09-11T06:42:54.281Z,19.66
2018-09-11T06:45:27.589Z,19.74
2018-09-11T06:48:01.133Z,19.71
2018-09-11T06:50:34.437Z,19.72
2018-09-11T06:53:07.818Z,19.82
2018-09-11T06:55:41.158Z,19.90
2018-09-11T06:58:14.483Z,20.14
2018-09-11T07:00:47.850Z,20.38
2018-09-11T07:03:21.155Z,20.52
2018-09-11T07:05:54.485Z,20.42
2018-09-11T07:08:27.825Z,20.37
2018-09-11T07:11:01.201Z,20.62
2018-09-11T07:13:34.535Z,20.71
2018-09-11T07:16:07.949Z,20.73
2018-09-11T07:18:41.265Z,20.66
2018-09-11T07:21:14.605Z,20.61
2018-09-11T07:23:47.938Z,20.52
2018-09-11T07:26:21.297Z,20.39
2018-09-11T07:28:55.134Z,20.40
2018-09-11T07:31:28.471Z,20.42
2018-09-11T07:34:01.789Z,20.42
2018-09-11T07:36:35.137Z,20.52
2018-09-11T07:39:08.966Z,20.69
2018-09-11T07:41:46.185Z,20.76
2018-09-11T07:44:19.488Z,20.76
2018-09-11T07:46:52.809Z,21.02
2018-09-11T07:49:26.120Z,21.19
2018-09-11T07:51:59.446Z,21.24
2018-09-11T07:54:32.838Z,21.36
2018-09-11T07:57:06.909Z,21.17
2018-09-11T07:59:40.206Z,21.17
2018-09-11T08:02:13.534Z,21.21
2018-09-11T08:04:46.858Z,21.39
2018-09-11T08:07:20.173Z,21.29
2018-09-11T08:09:53.525Z,21.36
2018-09-11T08:12:26.849Z,21.59
2018-09-11T08:15:00.177Z,21.82
2018-09-11T08:17:33.489Z,21.75
2018-09-11T08:20:06.838Z,21.74
2018-09-11T08:22:40.195Z,21.81
2018-09-11T08:25:13.539Z,21.75
2018-09-11T08:27:46.845Z,21.80
2018-09-11T08:30:20.204Z,21.89
2018-09-11T08:32:53.509Z,22.02
2018-09-11T08:35:26.912Z,22.16
2018-09-11T08:38:00.548Z,22.29
2018-09-11T08:40:34.267Z,22.48
2018-09-11T08:43:07.613Z,22.74
2018-09-11T08:45:40.929Z,22.83
2018-09-11T08:48:14.262Z,22.97
2018-09-11T08:50:47.590Z,23.18
2018-09-11T08:53:20.922Z,23.35
2018-09-11T08:55:54.301Z,23.52
2018-09-11T08:58:27.698Z,23.70
2018-09-11T09:01:01.173Z,23.84
2018-09-11T09:03:34.496Z,23.98
2018-09-11T09:06:07.985Z,24.03
2018-09-11T09:08:41.286Z,24.28
2018-09-11T09:11:14.616Z,24.21
2018-09-11T09:13:47.892Z,24.00
2018-09-11T09:16:21.209Z,24.12
2018-09-11T09:18:54.518Z,24.09
2018-09-11T09:21:27.813Z,24.05
2018-09-11T09:24:01.160Z,24.00
2018-09-11T09:26:34.470Z,23.75
2018-09-11T09:29:08.081Z,23.50
2018-09-11T09:31:41.389Z,23.55
2018-09-11T09:34:14.680Z,23.51
2018-09-11T09:36:48.072Z,23.65
2018-09-11T09:39:21.409Z,23.67
2018-09-11T09:41:54.722Z,23.97
2018-09-11T09:44:28.000Z,23.98
2018-09-11T09:47:01.293Z,24.03
2018-09-11T09:49:34.582Z,24.23
2018-09-11T09:52:08.146Z,24.36
2018-09-11T09:54:41.443Z,24.45
2018-09-11T09:57:14.769Z,24.49
2018-09-11T09:59:48.057Z,24.45
2018-09-11T10:02:22.290Z,24.41
2018-09-11T10:04:55.676Z,24.39
2018-09-11T10:07:28.965Z,24.67
2018-09-11T10:10:02.285Z,24.79
2018-09-11T10:12:35.610Z,24.91
2018-09-11T10:15:08.965Z,24.86
2018-09-11T10:17:42.342Z,24.78
2018-09-11T10:20:15.626Z,24.73
2018-09-11T10:22:48.949Z,24.74
2018-09-11T10:25:22.282Z,24.76
2018-09-11T10:27:55.616Z,24.73
2018-09-11T10:30:28.955Z,24.75
2018-09-11T10:33:02.341Z,24.88
2018-09-11T10:35:35.672Z,24.86
2018-09-11T10:38:09.024Z,24.97
2018-09-11T10:40:42.341Z,24.73
2018-09-11T10:43:15.684Z,24.87
2018-09-11T10:45:49.009Z,24.79
2018-09-11T10:48:22.334Z,24.82
2018-09-11T10:50:55.667Z,24.82
2018-09-11T10:53:29.049Z,24.98
2018-09-11T10:56:02.365Z,25.09
2018-09-11T10:58:35.702Z,25.18
2018-09-11T11:01:09.039Z,25.14
2018-09-11T11:03:43.100Z,25.10
2018-09-11T11:06:16.397Z,25.06
2018-09-11T11:08:49.791Z,25.06
2018-09-11T11:11:23.849Z,24.98
2018-09-11T11:13:59.112Z,25.09
2018-09-11T11:16:32.430Z,25.28
2018-09-11T11:19:05.966Z,25.46
2018-09-11T11:21:39.325Z,25.56
2018-09-11T11:24:13.025Z,25.58
2018-09-11T11:26:46.361Z,25.64
2018-09-11T11:29:19.693Z,25.88
2018-09-11T11:31:53.019Z,26.04
2018-09-11T11:34:26.867Z,26.01
2018-09-11T11:37:01.209Z,25.80
2018-09-11T11:39:34.350Z,25.88
2018-09-11T11:42:07.766Z,25.96
2018-09-11T11:44:41.090Z,26.17
2018-09-11T11:47:14.385Z,25.88
2018-09-11T11:49:48.035Z,25.95
2018-09-11T11:52:21.482Z,25.78
2018-09-11T11:54:54.861Z,25.93
2018-09-11T11:57:28.163Z,26.12
2018-09-11T12:00:01.497Z,26.05
2018-09-11T12:02:34.797Z,26.62
2018-09-11T12:05:08.179Z,26.58
2018-09-11T12:07:41.531Z,26.57
2018-09-11T12:10:14.827Z,26.46
2018-09-11T12:12:49.681Z,26.41
2018-09-11T12:15:22.978Z,26.37
2018-09-11T12:17:56.266Z,26.47
2018-09-11T12:20:29.680Z,26.69
2018-09-11T12:23:02.979Z,26.74
2018-09-11T12:25:36.342Z,26.80
2018-09-11T12:28:09.661Z,26.87
2018-09-11T12:30:42.968Z,26.81
2018-09-11T12:33:16.701Z,26.95
2018-09-11T12:35:50.071Z,27.06
2018-09-11T12:38:23.361Z,27.04
2018-09-11T12:40:56.657Z,27.07
2018-09-11T12:43:29.942Z,27.15
2018-09-11T12:46:03.520Z,27.35
2018-09-11T12:48:36.687Z,27.34
2018-09-11T12:51:10.129Z,27.28
2018-09-11T12:53:43.428Z,27.24
2018-09-11T12:56:16.777Z,27.24
2018-09-11T12:58:50.085Z,27.36
2018-09-11T13:01:23.377Z,27.51
2018-09-11T13:03:57.481Z,27.43
2018-09-11T13:06:30.905Z,27.36
2018-09-11T13:09:05.919Z,27.25
2018-09-11T13:11:39.246Z,27.20
2018-09-11T13:14:12.571Z,27.26
2018-09-11T13:16:45.881Z,27.19
2018-09-11T13:19:19.233Z,27.14
2018-09-11T13:21:52.539Z,27.24
2018-09-11T13:24:25.851Z,27.14
2018-09-11T13:26:59.142Z,27.30
2018-09-11T13:29:32.439Z,27.45
2018-09-11T13:32:05.716Z,27.32
2018-09-11T13:34:39.061Z,27.41
2018-09-11T13:37:12.345Z,27.39
2018-09-11T13:39:45.702Z,27.38
2018-09-11T13:42:18.994Z,27.22
2018-09-11T13:44:52.304Z,27.30
2018-09-11T13:47:25.766Z,27.18
2018-09-11T13:49:58.948Z,27.24
2018-09-11T13:52:32.236Z,27.31
2018-09-11T13:55:05.624Z,27.34
2018-09-11T13:57:38.928Z,27.27
2018-09-11T14:00:12.234Z,27.33
2018-09-11T14:02:45.615Z,27.12
2018-09-11T14:05:18.912Z,27.08
2018-09-11T14:07:52.218Z,27.13
2018-09-11T14:10:25.537Z,27.14
2018-09-11T14:12:58.838Z,27.22
2018-09-11T14:15:32.152Z,27.24
2018-09-11T14:18:05.454Z,27.38
2018-09-11T14:20:38.885Z,27.39
2018-09-11T14:23:12.166Z,27.47
2018-09-11T14:25:45.469Z,27.51
2018-09-11T14:28:18.770Z,27.59
2018-09-11T14:30:52.224Z,27.60
2018-09-11T14:33:25.549Z,27.68
2018-09-11T14:35:58.851Z,27.27
2018-09-11T14:38:32.143Z,27.30
2018-09-11T14:41:05.469Z,27.16
2018-09-11T14:43:38.801Z,27.18
2018-09-11T14:46:12.100Z,27.27
2018-09-11T14:48:45.394Z,27.27
2018-09-11T14:51:18.707Z,27.22
2018-09-11T14:53:52.003Z,27.26
2018-09-11T14:56:25.314Z,27.12
2018-09-11T14:58:58.654Z,27.11
2018-09-11T15:01:31.950Z,27.14
2018-09-11T15:04:05.332Z,27.02
2018-09-11T15:06:38.721Z,27.01
2018-09-11T15:09:12.160Z,27.01
2018-09-11T15:11:45.501Z,27.15
2018-09-11T15:14:18.789Z,27.14
2018-09-11T15:16:52.117Z,27.14
2018-09-11T15:19:25.423Z,27.12
2018-09-11T15:21:58.809Z,27.10
2018-09-11T15:24:32.109Z,27.01
2018-09-11T15:27:05.434Z,27.03
2018-09-11T15:29:38.819Z,26.89
2018-09-11T15:32:12.133Z,26.86
2018-09-11T15:34:45.441Z,26.86
2018-09-11T15:37:18.777Z,26.87
2018-09-11T15:39:52.185Z,26.72
2018-09-11T15:42:25.501Z,26.77
2018-09-11T15:44:58.891Z,26.86
2018-09-11T15:47:32.268Z,26.89
2018-09-11T15:50:05.604Z,26.87
2018-09-11T15:52:38.971Z,26.79
2018-09-11T15:55:12.273Z,26.81
2018-09-11T15:57:45.590Z,26.92
2018-09-11T16:00:18.903Z,26.86
2018-09-11T16:02:52.221Z,26.89
2018-09-11T16:05:25.561Z,26.87
2018-09-11T16:07:58.904Z,26.77
2018-09-11T16:10:32.267Z,26.60
2018-09-11T16:13:05.850Z,26.65
2018-09-11T16:15:39.196Z,26.64
2018-09-11T16:18:12.528Z,26.58
2018-09-11T16:20:45.889Z,26.61
2018-09-11T16:23:19.229Z,26.51
2018-09-11T16:25:52.554Z,26.56
2018-09-11T16:28:25.877Z,26.56
2018-09-11T16:30:59.173Z,26.49
2018-09-11T16:33:32.515Z,26.48
2018-09-11T16:36:05.822Z,26.44
2018-09-11T16:38:39.218Z,26.33
2018-09-11T16:41:12.507Z,26.33
2018-09-11T16:43:45.842Z,26.35
2018-09-11T16:46:19.152Z,26.30
2018-09-11T16:48:52.516Z,26.26
2018-09-11T16:51:25.825Z,26.24
2018-09-11T16:53:59.165Z,26.23
2018-09-11T16:56:32.468Z,26.20
2018-09-11T16:59:05.797Z,26.10
2018-09-11T17:01:39.777Z,26.05
2018-09-11T17:04:13.152Z,26.12
2018-09-11T17:06:47.063Z,26.03
2018-09-11T17:09:20.441Z,25.99
2018-09-11T17:11:53.920Z,25.96
2018-09-11T17:14:27.367Z,25.92
2018-09-11T17:17:00.671Z,25.98
2018-09-11T17:19:33.994Z,25.97
2018-09-11T17:22:07.338Z,25.95
2018-09-11T17:24:40.662Z,25.94
2018-09-11T17:27:13.979Z,25.90
2018-09-11T17:29:47.429Z,25.79
2018-09-11T17:32:20.981Z,25.81
2018-09-11T17:34:54.563Z,25.78
2018-09-11T17:37:28.661Z,25.76
2018-09-11T17:40:01.993Z,25.70
2018-09-11T17:42:36.095Z,25.77
2018-09-11T17:45:09.678Z,25.73
2018-09-11T17:47:42.974Z,25.66
2018-09-11T17:50:17.201Z,25.66
2018-09-11T17:52:50.505Z,25.70
2018-09-11T17:55:23.996Z,25.67
2018-09-11T17:57:57.250Z,25.57
2018-09-11T18:00:30.631Z,25.55
2018-09-11T18:03:04.539Z,25.59
2018-09-11T18:05:37.868Z,25.57
2018-09-11T18:08:11.259Z,25.57
2018-09-11T18:10:45.857Z,25.50
2018-09-11T18:13:19.194Z,25.49
2018-09-11T18:15:52.517Z,25.50
2018-09-11T18:18:25.846Z,25.45
2018-09-11T18:20:59.140Z,25.49
2018-09-11T18:23:32.489Z,25.45
2018-09-11T18:26:05.845Z,25.39
2018-09-11T18:28:39.230Z,25.27
2018-09-11T18:31:12.540Z,25.39
2018-09-11T18:33:45.859Z,25.40
2018-09-11T18:36:19.199Z,25.34
2018-09-11T18:38:52.545Z,25.35
2018-09-11T18:41:25.877Z,25.32
2018-09-11T18:43:59.214Z,25.38
2018-09-11T18:46:32.689Z,25.38
2018-09-11T18:49:06.171Z,25.33
2018-09-11T18:51:39.903Z,25.32
2018-09-11T18:54:13.226Z,25.37
2018-09-11T18:56:47.408Z,25.35
2018-09-11T18:59:21.532Z,25.20
2018-09-11T19:01:54.863Z,25.20
2018-09-11T19:04:28.201Z,25.30
2018-09-11T19:07:01.514Z,25.27
2018-09-11T19:09:34.830Z,25.26
2018-09-11T19:12:08.148Z,25.22
2018-09-11T19:14:41.457Z,25.17
2018-09-11T19:17:14.746Z,25.16
2018-09-11T19:19:48.381Z,25.10
2018-09-11T19:22:21.629Z,25.09
2018-09-11T19:24:54.982Z,25.12
2018-09-11T19:27:28.253Z,25.13
2018-09-11T19:30:01.546Z,25.11
2018-09-11T19:32:34.834Z,25.11
2018-09-11T19:35:08.152Z,25.07
2018-09-11T19:37:41.435Z,25.06
2018-09-11T19:40:14.826Z,25.06
2018-09-11T19:42:48.122Z,24.99
2018-09-11T19:45:21.434Z,24.99
2018-09-11T19:47:54.738Z,24.94
2018-09-11T19:50:28.120Z,24.88
2018-09-11T19:53:01.374Z,24.85
2018-09-11T19:55:34.705Z,24.87
2018-09-11T19:58:08.044Z,24.85
2018-09-11T20:00:41.350Z,24.84
2018-09-11T20:03:14.659Z,24.72
2018-09-11T20:05:47.976Z,24.74
2018-09-11T20:08:21.329Z,24.75
2018-09-11T20:10:54.669Z,24.78
2018-09-11T20:13:27.960Z,24.79
2018-09-11T20:16:01.290Z,24.74
2018-09-11T20:18:34.564Z,24.71
2018-09-11T20:21:07.940Z,24.67
2018-09-11T20:23:41.218Z,24.66
2018-09-11T20:26:14.535Z,24.66
2018-09-11T20:28:47.809Z,24.63
2018-09-11T20:31:21.189Z,24.64
2018-09-11T20:33:54.580Z,24.67
2018-09-11T20:36:27.892Z,24.63
2018-09-11T20:39:01.185Z,24.61
2018-09-11T20:41:34.513Z,24.58
2018-09-11T20:44:08.185Z,24.61
2018-09-11T20:46:47.954Z,24.51
2018-09-11T20:49:21.219Z,24.48
2018-09-11T20:51:54.546Z,24.44
2018-09-11T20:54:27.825Z,24.44
2018-09-11T20:57:01.128Z,24.44
2018-09-11T20:59:34.411Z,24.43
2018-09-11T21:02:07.709Z,24.37
2018-09-11T21:04:40.989Z,24.39
2018-09-11T21:07:14.301Z,24.43
2018-09-11T21:09:47.621Z,24.45
2018-09-11T21:12:20.936Z,24.43
2018-09-11T21:14:54.254Z,24.38
2018-09-11T21:17:27.590Z,24.36
2018-09-11T21:20:00.906Z,24.29
2018-09-11T21:22:34.218Z,24.29
2018-09-11T21:25:07.559Z,24.24
2018-09-11T21:27:40.873Z,24.23
2018-09-11T21:30:14.169Z,24.18
2018-09-11T21:32:47.501Z,24.20
2018-09-11T21:35:20.797Z,24.19
2018-09-11T21:37:54.102Z,24.21
2018-09-11T21:40:27.398Z,24.21
2018-09-11T21:43:00.724Z,24.23
2018-09-11T21:45:34.057Z,24.18
2018-09-11T21:48:07.458Z,24.20
2018-09-11T21:50:40.801Z,24.19
2018-09-11T21:53:14.109Z,24.20
2018-09-11T21:55:47.411Z,24.16
2018-09-11T21:58:20.735Z,24.18
2018-09-11T22:00:59.310Z,24.14
2018-09-11T22:03:32.644Z,24.16
2018-09-11T22:06:06.013Z,24.09
2018-09-11T22:08:39.875Z,24.12
2018-09-11T22:11:13.189Z,24.11
2018-09-11T22:13:46.764Z,24.14
2018-09-11T22:16:20.165Z,24.16
2018-09-11T22:18:53.490Z,24.12
2018-09-11T22:21:26.764Z,24.09
2018-09-11T22:24:00.083Z,24.13
2018-09-11T22:26:33.819Z,24.12
2018-09-11T22:29:07.122Z,24.10
2018-09-11T22:31:40.427Z,24.04
2018-09-11T22:34:13.745Z,24.02
2018-09-11T22:36:47.024Z,23.97
2018-09-11T22:39:20.331Z,23.95
2018-09-11T22:41:53.612Z,24.00
2018-09-11T22:44:26.921Z,24.04
2018-09-11T22:47:00.204Z,24.05
2018-09-11T22:49:33.522Z,24.07
2018-09-11T22:52:06.882Z,24.06
2018-09-11T22:54:40.849Z,24.04
2018-09-11T22:57:14.158Z,23.98
2018-09-11T22:59:47.475Z,23.99
2018-09-11T23:02:20.761Z,23.97
2018-09-11T23:04:54.073Z,23.92
2018-09-11T23:07:27.679Z,23.93
2018-09-11T23:10:01.006Z,23.92
2018-09-11T23:12:34.293Z,23.89
2018-09-11T23:15:07.640Z,23.91
2018-09-11T23:17:40.987Z,23.88
2018-09-11T23:20:14.296Z,23.83
2018-09-11T23:22:47.610Z,23.75
2018-09-11T23:25:20.893Z,23.73
2018-09-11T23:27:54.181Z,23.76
2018-09-11T23:30:27.457Z,23.74
2018-09-11T23:33:00.753Z,23.75
2018-09-11T23:35:34.029Z,23.75
2018-09-11T23:38:07.330Z,23.73
2018-09-11T23:40:40.638Z,23.74
2018-09-11T23:43:13.946Z,23.72
2018-09-11T23:47:16.368Z,23.71
2018-09-11T23:49:49.661Z,23.65
2018-09-11T23:52:22.941Z,23.59
2018-09-11T23:54:56.239Z,23.56
2018-09-11T23:57:29.527Z,23.55
